Time;durP1;ratioP1;P1;durP2;ratioP2;P2;SDS_P1;SDS_P2;PMS_P1;PMS_P2;Temp;Humidity;BMP_temperature;BMP_pressure;BME280_temperature;BME280_humidity;BME280_pressure;Samples;Min_cycle;Max_cycle;Signal;HPM_P1;HPM_P2
2023/09/03 00:02:18;;;;;;;9.93;9.63;;;16.80;99.90;;;;;;5080086;28;20237;-87
2023/09/03 00:04:47;;;;;;;9.93;9.63;;;16.80;99.90;;;;;;5079594;28;20300;-88
2023/09/03 00:07:31;;;;;;;9.82;9.52;;;16.70;99.90;;;;;;5079365;28;20237;-87
2023/09/03 00:16:04;;;;;;;9.80;9.50;;;16.60;99.90;;;;;;5096215;28;20229;-87
2023/09/03 00:18:43;;;;;;;9.75;9.45;;;16.60;99.90;;;;;;5096978;28;20218;-87
2023/09/03 00:21:11;;;;;;;9.70;9.40;;;16.60;99.90;;;;;;5096860;28;20240;-87
2023/09/03 00:23:41;;;;;;;9.80;9.50;;;16.60;99.90;;;;;;5096853;28;20273;-88
2023/09/03 00:29:00;;;;;;;9.80;9.50;;;16.60;99.90;;;;;;5096875;28;20222;-87
2023/09/03 00:31:27;;;;;;;9.88;9.57;;;16.50;99.90;;;;;;5096551;27;20217;-87
2023/09/03 00:33:56;;;;;;;10.00;9.70;;;16.60;99.90;;;;;;5096259;28;20252;-87
2023/09/03 00:36:26;;;;;;;9.93;9.63;;;16.50;99.90;;;;;;5096447;28;20233;-87
2023/09/03 00:38:57;;;;;;;9.70;9.40;;;16.50;99.90;;;;;;5096580;28;20236;-87
2023/09/03 00:41:24;;;;;;;9.80;9.50;;;16.50;99.90;;;;;;5096612;28;20225;-87
2023/09/03 00:52:06;;;;;;;9.88;9.57;;;16.40;99.90;;;;;;5095548;28;20238;-87
2023/09/03 00:54:45;;;;;;;10.00;9.70;;;16.40;99.90;;;;;;5096023;28;20280;-87
2023/09/03 00:57:15;;;;;;;9.77;9.48;;;16.40;99.90;;;;;;5096265;28;20694;-87
2023/09/03 00:59:44;;;;;;;9.88;9.57;;;16.40;99.90;;;;;;5095931;28;20229;-87
2023/09/03 01:02:22;;;;;;;10.07;9.77;;;16.40;99.90;;;;;;5095892;28;20214;-87
2023/09/03 01:05:02;;;;;;;9.95;9.65;;;16.40;99.90;;;;;;5095646;28;20264;-87
2023/09/03 01:07:30;;;;;;;9.90;9.60;;;16.40;99.90;;;;;;5096189;28;20238;-87
2023/09/03 01:10:01;;;;;;;10.02;9.73;;;16.40;99.90;;;;;;5095474;28;20222;-87
2023/09/03 01:12:38;;;;;;;10.13;9.82;;;16.40;99.90;;;;;;5095271;28;20239;-87
2023/09/03 01:18:13;;;;;;;9.90;9.60;;;16.40;99.90;;;;;;5095629;28;20241;-87
2023/09/03 01:32:17;;;;;;;9.98;9.68;;;16.30;99.90;;;;;;5081520;28;20234;-87
2023/09/03 01:34:47;;;;;;;9.95;9.65;;;16.30;99.90;;;;;;5081714;28;20230;-87
2023/09/03 01:37:16;;;;;;;9.95;9.65;;;16.30;99.90;;;;;;5081570;28;20231;-87
2023/09/03 01:39:45;;;;;;;9.90;9.60;;;16.30;99.90;;;;;;5082065;28;20253;-87
2023/09/03 01:42:26;;;;;;;10.00;9.70;;;16.20;99.90;;;;;;5082176;28;20233;-87
2023/09/03 01:44:56;;;;;;;10.05;9.75;;;16.20;99.90;;;;;;5082800;28;20265;-87
2023/09/03 01:47:33;;;;;;;9.90;9.60;;;16.10;99.90;;;;;;5097274;27;20226;-87
2023/09/03 01:50:12;;;;;;;9.90;9.60;;;16.10;99.90;;;;;;5082432;28;20396;-87
2023/09/03 01:52:57;;;;;;;10.10;9.80;;;16.10;99.90;;;;;;5092890;27;20226;-86
2023/09/03 01:58:13;;;;;;;10.10;9.80;;;16.10;99.90;;;;;;5101879;27;20290;-86
2023/09/03 02:03:29;;;;;;;10.05;9.75;;;16.10;99.90;;;;;;5101649;27;20226;-86
2023/09/03 02:06:08;;;;;;;10.10;9.80;;;16.00;99.90;;;;;;5100953;27;20222;-86
2023/09/03 02:08:37;;;;;;;9.90;9.60;;;16.00;99.90;;;;;;5101433;27;20273;-87
2023/09/03 02:11:16;;;;;;;10.00;9.70;;;16.00;99.90;;;;;;5101211;27;20214;-86
2023/09/03 02:13:54;;;;;;;10.10;9.80;;;16.00;99.90;;;;;;5101154;27;20221;-86
2023/09/03 02:16:25;;;;;;;10.10;9.80;;;16.00;99.90;;;;;;5089177;28;20229;-87
2023/09/03 02:18:53;;;;;;;9.95;9.65;;;15.90;99.90;;;;;;5083841;28;20238;-87
2023/09/03 02:21:21;;;;;;;9.98;9.68;;;15.90;99.90;;;;;;5081874;28;20226;-87
2023/09/03 02:23:51;;;;;;;10.18;9.88;;;15.90;99.90;;;;;;5081278;28;20238;-87
2023/09/03 02:26:21;;;;;;;10.30;10.00;;;15.90;99.90;;;;;;5081707;28;20229;-87
2023/09/03 02:29:00;;;;;;;10.15;9.85;;;15.80;99.90;;;;;;5081720;28;20295;-87
2023/09/03 02:31:30;;;;;;;10.02;9.73;;;15.90;99.90;;;;;;5081909;28;20237;-87
2023/09/03 02:33:58;;;;;;;10.20;9.90;;;15.80;99.90;;;;;;5080604;28;20222;-87
2023/09/03 02:36:28;;;;;;;10.15;9.85;;;15.80;99.90;;;;;;5081044;28;20286;-86
2023/09/03 02:41:43;;;;;;;10.05;9.75;;;15.80;99.90;;;;;;5094985;28;20222;-86
2023/09/03 02:44:22;;;;;;;10.20;9.90;;;15.70;99.90;;;;;;5100106;27;20222;-85
2023/09/03 02:46:53;;;;;;;10.07;9.77;;;15.70;99.90;;;;;;5100636;27;20240;-86
2023/09/03 02:49:22;;;;;;;9.90;9.60;;;15.70;99.90;;;;;;5100922;27;20260;-86
2023/09/03 02:51:53;;;;;;;10.10;9.80;;;15.70;99.90;;;;;;5100797;27;20238;-86
2023/09/03 02:54:22;;;;;;;9.98;9.68;;;15.60;99.90;;;;;;5100154;27;20218;-87
2023/09/03 02:56:51;;;;;;;10.10;9.80;;;15.60;99.90;;;;;;5100618;27;20218;-86
2023/09/03 02:59:19;;;;;;;9.88;9.57;;;15.60;99.90;;;;;;5100859;27;20222;-86
2023/09/03 03:01:47;;;;;;;9.90;9.60;;;15.60;99.90;;;;;;5093157;28;20245;-87
2023/09/03 03:07:14;;;;;;;9.95;9.65;;;15.60;99.90;;;;;;5082020;28;20228;-87
2023/09/03 03:09:42;;;;;;;9.90;9.60;;;15.60;99.90;;;;;;5080572;28;20265;-87
2023/09/03 03:14:51;;;;;;;10.10;9.80;;;15.40;99.90;;;;;;5080147;28;20312;-86
2023/09/03 03:17:19;;;;;;;9.85;9.55;;;15.40;99.90;;;;;;5080509;28;20222;-87
2023/09/03 03:19:52;;;;;;;10.05;9.75;;;15.30;99.90;;;;;;5080037;28;20257;-87
2023/09/03 03:22:19;;;;;;;10.10;9.80;;;15.20;99.90;;;;;;5080659;28;20321;-87
2023/09/03 03:24:48;;;;;;;9.80;9.50;;;15.30;99.90;;;;;;5080119;28;20226;-87
2023/09/03 03:27:20;;;;;;;10.20;9.90;;;15.30;99.90;;;;;;5080442;28;20225;-86
2023/09/03 03:29:49;;;;;;;10.00;9.70;;;15.30;99.90;;;;;;5080172;28;20249;-86
2023/09/03 03:32:20;;;;;;;10.00;9.70;;;15.30;99.90;;;;;;5080149;28;20238;-87
2023/09/03 03:37:36;;;;;;;10.00;9.70;;;15.30;99.90;;;;;;5080161;28;20292;-87
2023/09/03 03:42:55;;;;;;;10.10;9.80;;;15.40;99.90;;;;;;5080127;28;20230;-87
2023/09/03 03:45:23;;;;;;;9.90;9.60;;;15.30;99.90;;;;;;5079642;28;20281;-87
2023/09/03 03:47:53;;;;;;;9.90;9.60;;;15.30;99.90;;;;;;5080089;28;20225;-87
2023/09/03 03:50:22;;;;;;;10.13;9.82;;;15.30;99.90;;;;;;5079821;28;20226;-87
2023/09/03 03:52:51;;;;;;;10.00;9.70;;;15.30;99.90;;;;;;5079823;28;20241;-86
2023/09/03 03:55:19;;;;;;;10.07;9.77;;;15.30;99.90;;;;;;5079944;28;20256;-87
2023/09/03 03:57:48;;;;;;;10.18;9.88;;;15.30;99.90;;;;;;5081041;28;20218;-86
2023/09/03 04:00:17;;;;;;;9.93;9.63;;;15.30;99.90;;;;;;5080415;28;20276;-87
2023/09/03 04:02:59;;;;;;;10.02;9.73;;;15.30;99.90;;;;;;5079999;28;20241;-87
2023/09/03 04:08:21;;;;;;;9.90;9.60;;;15.30;99.90;;;;;;5079822;28;20233;-86
2023/09/03 04:13:39;;;;;;;9.80;9.50;;;15.30;99.90;;;;;;5079496;28;20230;-87
2023/09/03 04:16:09;;;;;;;9.90;9.60;;;15.30;99.90;;;;;;5079228;28;20233;-87
2023/09/03 04:18:37;;;;;;;9.90;9.60;;;15.30;99.90;;;;;;5080231;28;20284;-87
2023/09/03 04:21:08;;;;;;;9.82;9.52;;;15.30;99.90;;;;;;5079732;28;20226;-86
2023/09/03 04:23:38;;;;;;;9.93;9.63;;;15.30;99.90;;;;;;5079881;28;20234;-86
2023/09/03 04:26:06;;;;;;;10.20;9.90;;;15.30;99.90;;;;;;5079410;28;20288;-88
2023/09/03 04:28:34;;;;;;;9.95;9.65;;;15.20;99.90;;;;;;5079768;28;20252;-87
2023/09/03 04:31:04;;;;;;;10.07;9.77;;;15.20;99.90;;;;;;5079924;28;20283;-86
2023/09/03 04:33:33;;;;;;;10.10;9.80;;;15.20;99.90;;;;;;5078873;28;20229;-87
2023/09/03 04:36:02;;;;;;;10.18;9.88;;;15.30;99.90;;;;;;5079225;28;20226;-87
2023/09/03 04:41:19;;;;;;;10.20;9.90;;;15.30;99.90;;;;;;5078645;28;20233;-87
2023/09/03 04:43:50;;;;;;;10.10;9.80;;;15.20;99.90;;;;;;5079206;28;20234;-87
2023/09/03 04:46:17;;;;;;;10.20;9.90;;;15.20;99.90;;;;;;5131398;22;20303;-79
2023/09/03 04:48:43;;;;;;;10.00;9.70;;;15.20;99.90;;;;;;5100975;28;20232;-79
2023/09/03 04:51:10;;;;;;;9.90;9.60;;;15.20;99.90;;;;;;5103028;28;20237;-77
2023/09/03 04:53:38;;;;;;;9.90;9.60;;;15.20;99.90;;;;;;5102586;28;20321;-78
2023/09/03 04:56:13;;;;;;;9.70;9.40;;;15.20;99.90;;;;;;5114635;28;20240;-78
2023/09/03 04:58:40;;;;;;;9.90;9.60;;;15.20;99.90;;;;;;5121603;27;20232;-79
2023/09/03 05:01:14;;;;;;;9.95;9.65;;;15.10;99.90;;;;;;5122174;27;21060;-78
2023/09/03 05:03:41;;;;;;;9.95;9.65;;;15.10;99.90;;;;;;5121357;27;20235;-78
2023/09/03 05:06:18;;;;;;;9.90;9.60;;;15.10;99.90;;;;;;5120831;27;20275;-78
2023/09/03 05:08:48;;;;;;;9.90;9.60;;;15.10;99.90;;;;;;5125501;27;20252;-79
2023/09/03 05:11:16;;;;;;;10.20;9.90;;;15.10;99.90;;;;;;5132821;27;20236;-78
2023/09/03 05:13:44;;;;;;;10.00;9.70;;;15.20;99.90;;;;;;5128840;27;20270;-77
2023/09/03 05:16:11;;;;;;;9.90;9.60;;;15.20;99.90;;;;;;5132695;27;20242;-77
2023/09/03 05:18:38;;;;;;;10.10;9.80;;;15.20;99.90;;;;;;5125516;27;20229;-76
2023/09/03 05:21:08;;;;;;;9.85;9.55;;;15.20;99.90;;;;;;5122188;27;20320;-77
2023/09/03 05:23:36;;;;;;;9.90;9.60;;;15.30;99.90;;;;;;5120564;28;20224;-78
2023/09/03 05:26:05;;;;;;;9.80;9.50;;;15.30;99.90;;;;;;5120716;27;21076;-78
2023/09/03 05:28:33;;;;;;;9.68;9.38;;;15.20;99.90;;;;;;5120269;27;20256;-78
2023/09/03 05:31:00;;;;;;;9.52;9.23;;;15.30;99.90;;;;;;5120387;27;20225;-77
2023/09/03 05:33:27;;;;;;;9.73;9.43;;;15.30;99.90;;;;;;5119841;27;20343;-77
2023/09/03 05:35:54;;;;;;;9.60;9.30;;;15.30;99.90;;;;;;5119885;27;20331;-79
2023/09/03 05:38:21;;;;;;;9.80;9.50;;;15.40;99.90;;;;;;5121098;27;20240;-78
2023/09/03 05:40:48;;;;;;;9.60;9.30;;;15.50;99.90;;;;;;5120429;27;20240;-78
2023/09/03 05:43:16;;;;;;;9.45;9.15;;;15.50;99.90;;;;;;5125445;27;20347;-78
2023/09/03 05:45:44;;;;;;;9.48;9.18;;;15.50;99.90;;;;;;5124008;27;20290;-79
2023/09/03 05:48:12;;;;;;;9.65;9.35;;;15.60;99.90;;;;;;5122328;27;20231;-78
2023/09/03 05:50:39;;;;;;;9.43;9.13;;;15.60;99.90;;;;;;5121182;27;20228;-78
2023/09/03 05:53:06;;;;;;;9.30;9.00;;;15.70;99.90;;;;;;5120112;27;20243;-78
2023/09/03 05:55:37;;;;;;;9.38;9.07;;;15.80;99.90;;;;;;5121121;27;20280;-77
2023/09/03 05:58:05;;;;;;;9.40;9.10;;;15.80;99.90;;;;;;5120903;27;20208;-79
2023/09/03 06:00:33;;;;;;;9.20;8.90;;;15.90;99.90;;;;;;5120550;27;20229;-78
2023/09/03 06:03:00;;;;;;;9.52;9.23;;;15.90;99.90;;;;;;5127192;27;20245;-77
2023/09/03 06:05:28;;;;;;;9.40;9.10;;;16.00;99.90;;;;;;5120504;27;20292;-79
2023/09/03 06:07:57;;;;;;;9.57;9.27;;;16.00;99.90;;;;;;5120443;27;20220;-77
2023/09/03 06:10:25;;;;;;;9.23;8.93;;;16.10;99.90;;;;;;5122439;27;20293;-79
2023/09/03 06:12:53;;;;;;;9.50;9.20;;;16.20;99.90;;;;;;5122532;27;20263;-78
2023/09/03 06:15:20;;;;;;;9.18;8.88;;;16.30;99.90;;;;;;5122303;27;20233;-80
2023/09/03 06:17:50;;;;;;;9.40;9.10;;;16.30;99.90;;;;;;5123219;27;20311;-79
2023/09/03 06:20:17;;;;;;;9.10;8.80;;;16.50;99.90;;;;;;5122561;27;20233;-79
2023/09/03 06:22:45;;;;;;;9.40;9.10;;;16.50;99.90;;;;;;5122192;27;20235;-79
2023/09/03 06:25:12;;;;;;;9.48;9.18;;;16.50;99.90;;;;;;5121058;27;20239;-77
2023/09/03 06:27:39;;;;;;;9.50;9.20;;;16.60;99.90;;;;;;5119469;27;20229;-78
2023/09/03 06:30:08;;;;;;;9.50;9.20;;;16.70;99.90;;;;;;5120082;27;20229;-79
2023/09/03 06:32:35;;;;;;;9.50;9.20;;;16.70;99.90;;;;;;5121146;28;20228;-78
2023/09/03 06:35:04;;;;;;;9.50;9.20;;;16.80;99.90;;;;;;5121971;27;20292;-79
2023/09/03 06:37:31;;;;;;;9.40;9.10;;;16.90;99.90;;;;;;5122044;27;20285;-78
2023/09/03 06:39:59;;;;;;;9.32;9.02;;;16.90;99.90;;;;;;5122223;27;20263;-79
2023/09/03 06:42:27;;;;;;;9.32;9.02;;;16.90;99.90;;;;;;5121685;27;20240;-78
2023/09/03 06:44:54;;;;;;;9.32;9.02;;;17.00;99.90;;;;;;5121454;27;20264;-79
2023/09/03 06:47:21;;;;;;;9.30;9.00;;;17.10;99.90;;;;;;5122017;27;20279;-78
2023/09/03 06:49:51;;;;;;;9.32;9.02;;;17.20;99.90;;;;;;5123815;27;20233;-79
2023/09/03 06:52:19;;;;;;;9.40;9.10;;;17.40;99.90;;;;;;5134426;27;20247;-78
2023/09/03 06:54:46;;;;;;;9.60;9.30;;;17.40;99.90;;;;;;5123807;27;20233;-79
2023/09/03 06:57:14;;;;;;;9.50;9.20;;;17.50;99.90;;;;;;5123598;27;20224;-80
2023/09/03 06:59:41;;;;;;;9.70;9.40;;;17.60;99.90;;;;;;5121096;27;20340;-79
2023/09/03 07:02:09;;;;;;;9.75;9.45;;;17.70;99.90;;;;;;5120756;27;20229;-79
2023/09/03 07:04:36;;;;;;;10.00;9.70;;;17.80;99.90;;;;;;5121023;27;20274;-79
2023/09/03 07:07:04;;;;;;;9.80;9.50;;;17.90;99.90;;;;;;5121879;27;20311;-79
2023/09/03 07:09:33;;;;;;;9.77;9.48;;;18.00;99.90;;;;;;5124635;27;20247;-79
2023/09/03 07:12:01;;;;;;;9.88;9.57;;;18.10;99.90;;;;;;5128022;27;20229;-79
2023/09/03 07:14:32;;;;;;;10.15;9.85;;;18.20;99.90;;;;;;5128471;27;20265;-79
2023/09/03 07:16:59;;;;;;;10.10;9.80;;;18.30;99.90;;;;;;5121666;27;20233;-77
2023/09/03 07:19:27;;;;;;;9.80;9.50;;;18.40;99.90;;;;;;5119989;27;20228;-77
2023/09/03 07:21:54;;;;;;;10.10;9.80;;;18.40;99.90;;;;;;5118405;27;20254;-78
2023/09/03 07:24:21;;;;;;;10.50;10.20;;;18.50;99.90;;;;;;5118810;27;20229;-78
2023/09/03 07:26:50;;;;;;;10.20;9.90;;;18.60;99.90;;;;;;5120051;28;20225;-78
2023/09/03 07:29:17;;;;;;;10.20;9.90;;;18.70;99.90;;;;;;5126728;27;20240;-78
2023/09/03 07:31:44;;;;;;;10.10;9.80;;;18.70;99.90;;;;;;5120599;27;20235;-78
2023/09/03 07:34:12;;;;;;;10.23;9.93;;;18.80;99.90;;;;;;5119637;27;20266;-78
2023/09/03 07:36:39;;;;;;;10.57;10.27;;;18.90;99.90;;;;;;5119360;27;20246;-78
2023/09/03 07:39:08;;;;;;;10.32;10.02;;;19.10;99.90;;;;;;5119358;28;20256;-79
2023/09/03 07:41:37;;;;;;;10.40;10.10;;;19.20;99.90;;;;;;5119653;28;20228;-78
2023/09/03 07:44:07;;;;;;;10.32;10.02;;;19.40;99.90;;;;;;5124768;28;20221;-76
2023/09/03 07:46:34;;;;;;;10.40;10.10;;;19.60;99.90;;;;;;5126307;28;20239;-77
2023/09/03 07:49:01;;;;;;;10.48;10.18;;;19.70;99.90;;;;;;5125290;27;20274;-78
2023/09/03 07:51:28;;;;;;;10.20;9.90;;;19.90;99.90;;;;;;5122595;28;20320;-78
2023/09/03 07:53:56;;;;;;;10.05;9.75;;;20.10;99.90;;;;;;5121004;27;20283;-78
2023/09/03 07:56:23;;;;;;;10.30;10.00;;;20.10;99.90;;;;;;5120949;27;20288;-78
2023/09/03 07:58:50;;;;;;;10.30;10.00;;;20.10;99.90;;;;;;5121600;28;20225;-78
2023/09/03 08:01:19;;;;;;;10.20;9.90;;;20.00;99.90;;;;;;5119991;28;20304;-78
2023/09/03 08:03:47;;;;;;;10.25;9.95;;;20.10;99.90;;;;;;5119617;27;20232;-78
2023/09/03 08:06:16;;;;;;;10.27;9.98;;;20.10;99.90;;;;;;5121218;27;20292;-78
2023/09/03 08:08:44;;;;;;;10.30;10.00;;;20.10;99.90;;;;;;5121075;27;20296;-78
2023/09/03 08:11:11;;;;;;;10.45;10.15;;;20.20;99.90;;;;;;5120736;27;20263;-78
2023/09/03 08:13:38;;;;;;;10.20;9.90;;;20.40;99.90;;;;;;5120330;28;20240;-78
2023/09/03 08:16:05;;;;;;;10.55;10.25;;;20.50;99.90;;;;;;5119368;27;20258;-77
2023/09/03 08:18:34;;;;;;;10.27;9.98;;;20.60;99.90;;;;;;5119293;28;20229;-76
2023/09/03 08:21:01;;;;;;;10.30;10.00;;;20.70;99.90;;;;;;5118207;27;20228;-78
2023/09/03 08:23:28;;;;;;;10.30;10.00;;;20.90;99.90;;;;;;5116877;28;20236;-77
2023/09/03 08:25:55;;;;;;;10.30;10.00;;;21.00;99.90;;;;;;5117178;28;20251;-77
2023/09/03 08:28:22;;;;;;;10.40;10.10;;;21.00;99.90;;;;;;5117946;28;20225;-78
2023/09/03 08:30:49;;;;;;;10.40;10.10;;;20.90;99.90;;;;;;5117247;28;20233;-78
2023/09/03 08:33:16;;;;;;;10.32;10.02;;;20.90;99.90;;;;;;5119065;27;20241;-77
2023/09/03 08:35:45;;;;;;;10.40;10.10;;;20.80;99.90;;;;;;5122373;28;20236;-78
2023/09/03 08:38:12;;;;;;;10.43;10.13;;;20.70;99.90;;;;;;5128398;28;20236;-77
2023/09/03 08:40:39;;;;;;;10.93;10.63;;;20.90;99.90;;;;;;5122337;28;20259;-78
2023/09/03 08:43:09;;;;;;;10.80;10.50;;;21.00;99.90;;;;;;5122102;28;20289;-77
2023/09/03 08:45:42;;;;;;;10.50;10.20;;;21.00;99.90;;;;;;5120777;28;20241;-77
2023/09/03 08:48:10;;;;;;;10.57;10.27;;;21.10;99.90;;;;;;5122233;28;20322;-77
2023/09/03 08:50:37;;;;;;;10.32;10.02;;;21.30;99.90;;;;;;5121800;27;20243;-77
2023/09/03 08:53:06;;;;;;;10.30;10.00;;;21.50;99.90;;;;;;5122032;28;20229;-78
2023/09/03 08:55:34;;;;;;;10.40;10.10;;;21.60;99.90;;;;;;5122894;28;20221;-77
2023/09/03 08:58:01;;;;;;;10.38;10.07;;;21.90;99.90;;;;;;5122671;28;20320;-77
2023/09/03 09:00:28;;;;;;;10.43;10.13;;;22.20;99.90;;;;;;5122311;28;20237;-78
2023/09/03 09:02:56;;;;;;;10.32;10.02;;;22.50;99.90;;;;;;5120579;28;20237;-78
2023/09/03 09:05:24;;;;;;;10.20;9.90;;;22.70;99.90;;;;;;5122186;28;20232;-78
2023/09/03 09:07:51;;;;;;;10.40;10.10;;;22.80;99.90;;;;;;5123443;27;20243;-78
2023/09/03 09:10:34;;;;;;;10.70;10.40;;;22.90;99.90;;;;;;5125067;28;20297;-78
2023/09/03 09:13:05;;;;;;;10.63;10.32;;;22.90;99.90;;;;;;5133759;27;20228;-77
2023/09/03 09:15:35;;;;;;;10.40;10.10;;;23.00;99.90;;;;;;5132355;28;20229;-77
2023/09/03 09:18:02;;;;;;;10.43;10.13;;;23.10;99.90;;;;;;5123286;28;20278;-77
2023/09/03 09:20:34;;;;;;;10.50;10.20;;;23.20;99.90;;;;;;5126887;28;20233;-77
2023/09/03 09:23:04;;;;;;;10.32;10.02;;;23.20;99.90;;;;;;5122862;28;20251;-77
2023/09/03 09:25:32;;;;;;;10.43;10.13;;;23.00;99.90;;;;;;5121178;28;20320;-78
2023/09/03 09:28:11;;;;;;;10.30;10.00;;;23.10;99.90;;;;;;5129438;28;20215;-77
2023/09/03 09:30:52;;;;;;;10.20;9.90;;;23.50;99.90;;;;;;5127950;28;20335;-78
2023/09/03 09:33:19;;;;;;;10.32;10.02;;;23.70;99.90;;;;;;5121619;27;20233;-77
2023/09/03 09:35:46;;;;;;;10.18;9.88;;;23.80;99.90;;;;;;5121260;27;20276;-77
2023/09/03 09:38:13;;;;;;;10.30;10.00;;;24.10;99.90;;;;;;5121263;27;20225;-76
2023/09/03 09:40:42;;;;;;;10.00;9.70;;;24.10;99.90;;;;;;5119996;28;20237;-77
2023/09/03 09:43:11;;;;;;;10.10;9.80;;;24.10;99.90;;;;;;5120757;27;20783;-77
2023/09/03 09:45:47;;;;;;;10.23;9.93;;;24.10;99.90;;;;;;5119274;28;20264;-77
2023/09/03 09:48:15;;;;;;;10.00;9.70;;;24.40;99.90;;;;;;5120818;28;20232;-77
2023/09/03 09:50:44;;;;;;;10.20;9.90;;;24.50;99.90;;;;;;5125472;28;20249;-77
2023/09/03 09:53:23;;;;;;;10.00;9.70;;;24.80;99.90;;;;;;5131772;27;20224;-80
2023/09/03 09:56:01;;;;;;;10.02;9.73;;;24.50;99.90;;;;;;5127362;28;20240;-79
2023/09/03 09:58:38;;;;;;;10.10;9.80;;;24.60;99.90;;;;;;5126709;28;20246;-80
2023/09/03 10:01:07;;;;;;;9.95;9.65;;;24.90;99.90;;;;;;5125438;28;20233;-79
2023/09/03 10:03:46;;;;;;;10.00;9.70;;;25.00;99.90;;;;;;5117956;28;20228;-82
2023/09/03 10:06:14;;;;;;;9.85;9.55;;;25.50;99.90;;;;;;5125977;28;20236;-81
2023/09/03 10:08:44;;;;;;;10.20;9.90;;;25.70;99.90;;;;;;5128602;28;20372;-81
2023/09/03 10:11:14;;;;;;;10.00;9.70;;;25.80;99.90;;;;;;5140953;27;20251;-81
2023/09/03 10:13:42;;;;;;;10.20;9.90;;;25.80;99.90;;;;;;5138153;28;20228;-80
2023/09/03 10:16:13;;;;;;;10.20;9.90;;;26.00;99.90;;;;;;5139097;28;20217;-80
2023/09/03 10:18:57;;;;;;;10.02;9.73;;;26.20;99.90;;;;;;5142105;27;20223;-81
2023/09/03 10:21:31;;;;;;;9.98;9.68;;;26.30;99.90;;;;;;5142078;27;20232;-80
2023/09/03 10:24:05;;;;;;;9.98;9.68;;;26.20;99.90;;;;;;5151327;22;20267;-81
2023/09/03 10:26:56;;;;;;;10.00;9.70;;;26.10;99.90;;;;;;5121577;27;20217;-78
2023/09/03 10:29:25;;;;;;;9.68;9.38;;;25.70;99.90;;;;;;5121072;28;20217;-79
2023/09/03 10:31:54;;;;;;;9.65;9.35;;;25.50;99.90;;;;;;5109582;28;20276;-81
2023/09/03 10:34:22;;;;;;;9.85;9.55;;;25.50;99.90;;;;;;5108604;28;20307;-80
2023/09/03 10:37:10;;;;;;;10.10;9.80;;;25.80;99.90;;;;;;5106683;28;20252;-80
2023/09/03 10:39:40;;;;;;;10.35;10.05;;;26.20;99.90;;;;;;5107331;28;20403;-80
2023/09/03 10:42:29;;;;;;;9.93;9.63;;;26.50;99.90;;;;;;5116160;28;20221;-80
2023/09/03 10:44:58;;;;;;;10.05;9.75;;;26.60;99.90;;;;;;5112412;28;20292;-79
2023/09/03 17:14:34;;;;;;;10.15;9.85;;;24.50;99.90;;;;;;4781233;29;20330;-87
2023/09/03 17:18:02;;;;;;;;;;;;;;;;;;;;;
2023/09/03 19:14:06;;;;;;;9.90;9.60;;;20.00;99.90;;;;;;4961924;28;20238;-89
2023/09/03 19:18:01;;;;;;;10.20;9.90;;;20.00;99.90;;;;;;4961271;28;20489;-89
2023/09/03 21:03:36;;;;;;;;;;;;;;;;;;;;;
2023/09/03 23:53:46;;;;;;;10.48;10.18;;;15.80;99.90;;;;;;4937095;29;20240;-91
2023/09/03 23:56:49;;;;;;;10.75;10.45;;;15.80;99.90;;;;;;4917873;29;20242;-90
2023/09/03 23:59:49;;;;;;;10.57;10.27;;;15.70;99.90;;;;;;4938252;29;20270;-88
